createdAt,value
2022-12-22T00:00:06.834Z,7.80
2022-12-22T00:06:02.957Z,7.80
2022-12-22T00:11:47.856Z,7.90
2022-12-22T00:17:26.103Z,7.80
2022-12-22T00:23:01.747Z,7.90
2022-12-22T00:28:40.841Z,8.00
2022-12-22T00:34:14.921Z,7.90
2022-12-22T00:39:38.502Z,7.90
2022-12-22T00:44:59.875Z,7.80
2022-12-22T00:50:21.284Z,7.90
2022-12-22T00:55:48.222Z,7.80
2022-12-22T01:01:18.474Z,7.70
2022-12-22T01:06:50.452Z,7.60
2022-12-22T01:12:35.350Z,7.60
2022-12-22T01:18:20.552Z,7.50
2022-12-22T01:23:54.924Z,7.50
2022-12-22T01:29:23.072Z,7.50
2022-12-22T01:34:45.373Z,7.40
2022-12-22T01:40:06.966Z,7.50
2022-12-22T01:45:37.358Z,7.60
2022-12-22T01:56:55.801Z,7.80
2022-12-22T02:03:01.198Z,7.90
2022-12-22T02:08:54.738Z,8.00
2022-12-22T02:14:29.733Z,8.10
2022-12-22T02:20:09.062Z,8.10
2022-12-22T02:25:36.013Z,8.20
2022-12-22T02:30:58.908Z,8.20
2022-12-22T02:36:53.283Z,8.20
2022-12-22T02:43:01.124Z,8.30
2022-12-22T02:49:02.511Z,8.20
2022-12-22T02:54:31.135Z,8.20
2022-12-22T02:59:53.456Z,8.20
2022-12-22T03:05:27.205Z,8.20
2022-12-22T03:10:57.112Z,8.20
2022-12-22T03:16:48.438Z,8.30
2022-12-22T03:22:29.277Z,8.40
2022-12-22T03:27:52.394Z,8.40
2022-12-22T03:33:05.091Z,8.40
2022-12-22T03:38:24.059Z,8.40
2022-12-22T03:44:00.107Z,8.50
2022-12-22T03:49:15.629Z,8.40
2022-12-22T03:54:31.112Z,8.60
2022-12-22T03:59:34.693Z,8.50
2022-12-22T04:04:54.527Z,8.60
2022-12-22T04:10:16.141Z,8.60
2022-12-22T04:15:19.107Z,8.60
2022-12-22T04:20:25.149Z,8.60
2022-12-22T04:25:29.828Z,8.60
2022-12-22T04:30:32.799Z,8.70
2022-12-22T04:35:35.809Z,8.70
2022-12-22T04:40:38.892Z,8.60
2022-12-22T04:45:42.043Z,8.60
2022-12-22T04:50:45.234Z,8.50
2022-12-22T04:55:55.620Z,8.50
2022-12-22T05:01:08.488Z,8.60
2022-12-22T05:06:40.600Z,8.60
2022-12-22T05:12:38.053Z,8.50
2022-12-22T05:17:56.684Z,8.50
2022-12-22T05:23:25.577Z,8.60
2022-12-22T05:28:49.115Z,8.50
2022-12-22T05:34:10.216Z,8.50
2022-12-22T05:39:21.529Z,8.30
2022-12-22T05:44:32.182Z,8.40
2022-12-22T05:49:41.936Z,8.40
2022-12-22T05:54:46.105Z,8.40
2022-12-22T05:59:49.226Z,8.50
2022-12-22T06:05:05.313Z,8.50
2022-12-22T06:10:13.107Z,8.50
2022-12-22T06:15:16.692Z,8.50
2022-12-22T06:20:19.740Z,8.50
2022-12-22T06:25:22.713Z,8.60
2022-12-22T06:30:33.011Z,8.50
2022-12-22T06:35:37.839Z,8.60
2022-12-22T06:40:40.784Z,8.50
2022-12-22T06:45:44.656Z,8.60
2022-12-22T06:50:54.469Z,8.60
2022-12-22T06:56:53.429Z,8.60
2022-12-22T07:02:27.277Z,8.60
2022-12-22T07:07:32.837Z,8.60
2022-12-22T07:12:52.941Z,8.70
2022-12-22T07:18:16.840Z,8.70
2022-12-22T07:23:38.424Z,8.80
2022-12-22T07:29:09.451Z,8.70
2022-12-22T07:34:25.813Z,8.70
2022-12-22T07:39:35.488Z,8.60
2022-12-22T07:44:40.072Z,8.70
2022-12-22T07:50:02.545Z,8.80
2022-12-22T07:55:05.989Z,8.80
2022-12-22T08:00:10.117Z,8.80
2022-12-22T08:05:41.693Z,8.90
2022-12-22T08:10:51.629Z,8.90
2022-12-22T08:16:26.915Z,9.00
2022-12-22T08:21:37.164Z,9.00
2022-12-22T08:33:00.452Z,9.20
2022-12-22T08:38:10.835Z,9.30
2022-12-22T08:43:14.409Z,9.50
2022-12-22T08:48:17.590Z,9.50
2022-12-22T08:54:04.008Z,9.60
2022-12-22T08:59:16.564Z,9.60
2022-12-22T09:04:46.898Z,9.70
2022-12-22T09:09:57.669Z,9.70
2022-12-22T09:15:00.728Z,9.70
2022-12-22T09:20:05.149Z,9.80
2022-12-22T09:25:08.646Z,9.70
2022-12-22T09:30:12.171Z,9.80
2022-12-22T09:35:15.252Z,9.80
2022-12-22T09:40:21.868Z,9.80
2022-12-22T09:45:25.111Z,9.80
2022-12-22T09:50:30.788Z,9.90
2022-12-22T09:55:39.394Z,9.80
2022-12-22T10:00:42.930Z,9.90
2022-12-22T10:06:36.852Z,10.00
2022-12-22T10:11:45.659Z,9.90
2022-12-22T10:17:45.985Z,9.80
2022-12-22T10:23:13.326Z,9.60
2022-12-22T10:28:49.158Z,9.60
2022-12-22T10:34:20.529Z,9.50
2022-12-22T10:39:35.147Z,9.50
2022-12-22T10:44:44.523Z,9.50
2022-12-22T10:55:19.060Z,9.80
2022-12-22T11:00:31.254Z,9.90
2022-12-22T11:05:45.812Z,10.00
2022-12-22T11:11:12.073Z,10.10
2022-12-22T11:22:45.604Z,10.40
2022-12-22T11:28:28.858Z,10.60
2022-12-22T11:33:43.195Z,10.80
2022-12-22T11:39:00.993Z,11.00
2022-12-22T11:44:12.695Z,10.90
2022-12-22T11:50:46.040Z,11.00
2022-12-22T11:55:58.048Z,10.90
2022-12-22T12:02:12.255Z,10.90
2022-12-22T12:07:32.048Z,10.90
2022-12-22T12:12:59.814Z,10.80
2022-12-22T12:18:37.462Z,10.70
2022-12-22T12:24:04.026Z,10.80
2022-12-22T12:29:26.992Z,10.80
2022-12-22T12:34:38.392Z,10.90
2022-12-22T12:40:18.829Z,10.70
2022-12-22T12:45:43.092Z,10.70
2022-12-22T12:50:53.369Z,10.80
2022-12-22T12:56:22.957Z,10.70
2022-12-22T13:01:47.228Z,10.60
2022-12-22T13:07:09.658Z,10.70
2022-12-22T13:12:47.257Z,10.40
2022-12-22T13:18:04.472Z,10.50
2022-12-22T13:23:23.577Z,10.40
2022-12-22T13:28:46.556Z,10.20
2022-12-22T13:34:17.957Z,10.30
2022-12-22T13:39:27.476Z,10.40
2022-12-22T13:44:34.262Z,10.40
2022-12-22T13:50:07.230Z,10.30
2022-12-22T13:55:01.748Z,10.30
2022-12-22T14:00:05.215Z,10.30
2022-12-22T14:05:30.558Z,10.20
2022-12-22T14:10:50.745Z,10.20
2022-12-22T14:16:31.868Z,10.20
2022-12-22T14:21:49.298Z,10.10
2022-12-22T14:27:15.548Z,10.10
2022-12-22T14:33:00.118Z,10.10
2022-12-22T14:38:26.073Z,10.00
2022-12-22T14:43:40.840Z,9.60
2022-12-22T14:48:57.944Z,9.30
2022-12-22T14:54:12.043Z,9.20
2022-12-22T14:59:28.523Z,9.10
2022-12-22T15:04:47.714Z,9.10
2022-12-22T15:10:18.359Z,9.00
2022-12-22T15:15:17.778Z,8.90
2022-12-22T15:20:26.381Z,8.70
2022-12-22T15:25:29.647Z,8.90
2022-12-22T15:30:32.738Z,8.70
2022-12-22T15:35:36.091Z,8.70
2022-12-22T15:40:39.098Z,8.60
2022-12-22T15:45:43.489Z,8.50
2022-12-22T15:50:46.775Z,8.70
2022-12-22T15:56:20.277Z,8.60
2022-12-22T16:01:37.545Z,8.60
2022-12-22T16:06:58.464Z,8.60
2022-12-22T16:12:18.912Z,8.60
2022-12-22T16:17:46.768Z,8.70
2022-12-22T16:23:06.022Z,8.60
2022-12-22T16:28:32.899Z,8.60
2022-12-22T16:33:53.512Z,8.60
2022-12-22T16:39:08.635Z,8.50
2022-12-22T16:44:39.382Z,8.50
2022-12-22T16:49:44.046Z,8.50
2022-12-22T16:54:52.531Z,8.50
2022-12-22T16:59:56.033Z,8.60
2022-12-22T17:05:15.296Z,8.60
2022-12-22T17:10:28.483Z,8.70
2022-12-22T17:15:50.063Z,8.60
2022-12-22T17:21:26.658Z,8.60
2022-12-22T17:26:36.114Z,8.70
2022-12-22T17:32:07.315Z,8.70
2022-12-22T17:37:31.233Z,8.70
2022-12-22T17:42:45.278Z,8.50
2022-12-22T17:48:08.621Z,8.50
2022-12-22T17:53:36.247Z,8.60
2022-12-22T17:59:02.616Z,8.40
2022-12-22T18:04:31.204Z,8.40
2022-12-22T18:09:35.383Z,8.50
2022-12-22T18:14:38.353Z,8.40
2022-12-22T18:19:41.956Z,8.40
2022-12-22T18:24:45.038Z,8.40
2022-12-22T18:29:48.188Z,8.50
2022-12-22T18:34:51.301Z,8.60
2022-12-22T18:39:54.341Z,8.50
2022-12-22T18:44:57.384Z,8.60
2022-12-22T18:50:03.055Z,8.60
2022-12-22T18:55:24.795Z,8.70
2022-12-22T19:00:31.183Z,8.70
2022-12-22T19:05:50.083Z,8.60
2022-12-22T19:11:29.018Z,8.70
2022-12-22T19:17:02.618Z,8.60
2022-12-22T19:22:24.781Z,8.60
2022-12-22T19:28:01.439Z,8.50
2022-12-22T19:33:19.391Z,8.60
2022-12-22T19:38:32.375Z,8.60
2022-12-22T19:43:40.743Z,8.60
2022-12-22T19:48:49.858Z,8.50
2022-12-22T19:54:08.590Z,8.30
2022-12-22T19:59:37.566Z,8.20
2022-12-22T20:10:13.832Z,8.10
2022-12-22T20:15:48.845Z,7.90
2022-12-22T20:21:30.269Z,7.90
2022-12-22T20:26:54.244Z,7.80
2022-12-22T20:32:07.708Z,7.60
2022-12-22T20:37:31.072Z,7.60
2022-12-22T20:42:59.987Z,7.40
2022-12-22T20:48:20.406Z,7.40
2022-12-22T20:53:49.472Z,7.40
2022-12-22T20:59:12.094Z,7.30
2022-12-22T21:04:19.072Z,7.40
2022-12-22T21:09:23.218Z,7.30
2022-12-22T21:14:32.704Z,7.30
2022-12-22T21:19:36.307Z,7.20
2022-12-22T21:24:39.423Z,7.10
2022-12-22T21:29:42.430Z,7.20
2022-12-22T21:34:47.717Z,7.20
2022-12-22T21:39:50.943Z,7.30
2022-12-22T21:44:53.991Z,7.30
2022-12-22T21:49:56.984Z,7.30
2022-12-22T21:55:05.450Z,7.40
2022-12-22T22:00:12.927Z,7.40
2022-12-22T22:05:51.400Z,7.40
2022-12-22T22:11:03.974Z,7.50
2022-12-22T22:16:30.538Z,7.50
2022-12-22T22:21:51.019Z,7.50
2022-12-22T22:27:14.214Z,7.40
2022-12-22T22:32:33.504Z,7.40
2022-12-22T22:38:03.585Z,7.40
2022-12-22T22:43:07.256Z,7.50
2022-12-22T22:48:28.841Z,7.60
2022-12-22T22:53:36.321Z,7.60
2022-12-22T23:04:10.521Z,7.80
2022-12-22T23:09:30.403Z,7.80
2022-12-22T23:14:36.761Z,7.80
2022-12-22T23:19:40.222Z,7.80
2022-12-22T23:24:43.266Z,7.90
2022-12-22T23:29:46.262Z,8.00
2022-12-22T23:34:49.460Z,7.90
2022-12-22T23:39:52.585Z,7.90
2022-12-22T23:44:55.555Z,7.90
2022-12-22T23:50:01.593Z,7.80
2022-12-22T23:55:05.462Z,7.80
